Commack, New York
Current Conditions -  °F | °C
As of 11:53 AM on Thursday 30 Oct 2014 (Local Time) from KFRG Reporting Station
Few Clouds Few Clouds  
Wind Chill: 58°   Ceiling: Unl
Heat Index: 58°   Visibility: 10mi
Dew Point: 42°   Wind: 10mph
Humidity: 56%   Direction: 340°NNW
Pressure: 29.98"   Gusts: NA
Location:  40.85°N, 73.29°W
Report Text: KFRG 301553Z 34009KT 10SM FEW060 14/06 A2998 RMK AO2 SLP153 T01440056
Loading
Personal Weather Stations






























Interactive Weather Map
Tropical Storm Tracking
New forecast layout! Learn more

10-Day Weather Forecast

Advertisements
Track Severe Weather on mobile